Terminal Aerodrome Forecast
Issued by NWS Pittsburgh, PA

Current Version | Previous Version | Graphics & Text | Print | Product List | Glossary On
Versions: 1 2 3 4 5 6 7 8 9 10 11 12 13 14 15 16 17 18 19 20 21 22 23 24 25 26 27 28 29 30 31
800
FTUS41 KPBZ 100855 AAA
TAFPIT
TAF AMD
KPIT 100855Z 1009/1112 27010G19KT 3SM -SHSN BKN029 OVC035
     FM101700 26010KT 4SM -SHSN OVC014
     FM102200 26010KT 2SM -SHSN OVC012
     FM110200 29010G15KT 1SM -SHSN OVC012=

USA.gov is the U.S. government's official web portal to all federal, state and local government web resources and services.